createdAt,value
2022-12-24T00:02:46.397Z,4.40
2022-12-24T00:06:50.772Z,6.10
2022-12-24T00:10:46.818Z,4.30
2022-12-24T00:14:49.351Z,4.80
2022-12-24T00:18:23.960Z,4.50
2022-12-24T00:22:12.525Z,4.70
2022-12-24T00:26:16.592Z,5.10
2022-12-24T00:30:23.170Z,4.80
2022-12-24T00:34:18.415Z,4.20
2022-12-24T00:38:21.990Z,5.90
2022-12-24T00:42:19.958Z,5.30
2022-12-24T00:46:13.975Z,5.00
2022-12-24T00:50:20.235Z,5.40
2022-12-24T00:54:34.152Z,6.20
2022-12-24T00:58:36.808Z,5.70
2022-12-24T01:02:33.217Z,6.10
2022-12-24T01:06:31.310Z,5.50
2022-12-24T01:10:32.410Z,6.60
2022-12-24T01:14:36.067Z,6.70
2022-12-24T01:18:41.835Z,5.50
2022-12-24T01:22:40.687Z,5.80
2022-12-24T01:26:40.287Z,6.00
2022-12-24T01:30:39.781Z,6.60
2022-12-24T01:34:26.954Z,7.70
2022-12-24T01:38:27.241Z,6.20
2022-12-24T01:42:31.336Z,7.20
2022-12-24T01:46:44.360Z,6.40
2022-12-24T01:50:58.603Z,6.20
2022-12-24T01:55:05.812Z,6.60
2022-12-24T01:59:10.889Z,8.50
2022-12-24T02:03:02.409Z,6.40
2022-12-24T02:06:56.464Z,5.90
2022-12-24T02:10:53.532Z,6.20
2022-12-24T02:14:57.115Z,6.10
2022-12-24T02:19:06.906Z,5.60
2022-12-24T02:23:08.991Z,5.60
2022-12-24T02:27:10.102Z,6.80
2022-12-24T02:31:19.717Z,6.30
2022-12-24T02:35:16.047Z,6.20
2022-12-24T02:39:05.192Z,5.70
2022-12-24T02:42:58.707Z,4.90
2022-12-24T02:47:05.045Z,5.60
2022-12-24T02:50:59.307Z,4.80
2022-12-24T02:54:47.597Z,5.30
2022-12-24T02:58:49.980Z,5.10
2022-12-24T03:02:55.597Z,5.60
2022-12-24T03:07:08.047Z,5.80
2022-12-24T03:11:15.708Z,4.80
2022-12-24T03:15:21.456Z,4.90
2022-12-24T03:19:26.861Z,6.30
2022-12-24T03:23:24.338Z,5.60
2022-12-24T03:27:20.926Z,5.60
2022-12-24T03:31:24.175Z,5.10
2022-12-24T03:35:04.459Z,6.30
2022-12-24T03:38:50.509Z,6.60
2022-12-24T03:42:50.352Z,5.40
2022-12-24T03:46:48.885Z,5.30
2022-12-24T03:51:00.349Z,4.70
2022-12-24T04:02:24.589Z,3.30
2022-12-24T04:06:28.427Z,3.90
2022-12-24T04:10:29.497Z,4.40
2022-12-24T04:14:33.590Z,3.50
2022-12-24T04:18:29.636Z,3.40
2022-12-24T04:22:33.226Z,3.80
2022-12-24T04:26:11.721Z,3.90
2022-12-24T04:30:04.227Z,4.00
2022-12-24T04:34:27.245Z,4.20
2022-12-24T04:38:30.988Z,3.00
2022-12-24T04:42:35.111Z,3.30
2022-12-24T04:46:46.078Z,3.10
2022-12-24T04:50:57.356Z,3.00
2022-12-24T04:54:43.689Z,2.50
2022-12-24T04:58:49.126Z,3.90
2022-12-24T05:02:45.591Z,2.30
2022-12-24T05:06:49.667Z,3.20
2022-12-24T05:10:42.561Z,2.40
2022-12-24T05:14:34.964Z,2.80
2022-12-24T05:18:37.586Z,2.80
2022-12-24T05:22:39.526Z,2.20
2022-12-24T05:26:18.326Z,2.20
2022-12-24T05:30:22.030Z,2.80
2022-12-24T05:34:17.390Z,2.60
2022-12-24T05:38:17.502Z,2.80
2022-12-24T05:42:13.958Z,2.20
2022-12-24T05:46:38.083Z,2.60
2022-12-24T05:50:32.267Z,2.80
2022-12-24T05:54:35.900Z,2.30
2022-12-24T05:58:28.316Z,3.70
2022-12-24T06:02:00.943Z,2.90
2022-12-24T06:05:48.962Z,3.30
2022-12-24T06:09:36.526Z,3.70
2022-12-24T06:13:40.681Z,3.00
2022-12-24T06:17:44.032Z,3.40
2022-12-24T06:21:44.591Z,3.30
2022-12-24T06:25:27.957Z,2.80
2022-12-24T06:29:21.637Z,2.50
2022-12-24T06:33:16.990Z,3.40
2022-12-24T06:37:21.060Z,3.40
2022-12-24T06:41:24.629Z,3.60
2022-12-24T06:44:42.800Z,3.10
2022-12-24T06:48:46.520Z,4.10
2022-12-24T06:52:50.644Z,3.20
2022-12-24T06:56:44.267Z,3.60
2022-12-24T07:00:56.426Z,3.40
2022-12-24T07:04:50.549Z,5.10
2022-12-24T07:08:35.583Z,4.50
2022-12-24T07:12:39.329Z,3.70
2022-12-24T07:16:21.764Z,3.20
2022-12-24T07:20:22.354Z,3.80
2022-12-24T07:24:17.230Z,3.40
2022-12-24T07:28:14.009Z,3.90
2022-12-24T07:32:10.872Z,3.80
2022-12-24T07:35:57.164Z,4.60
2022-12-24T07:39:57.533Z,5.50
2022-12-24T07:44:04.363Z,4.20
2022-12-24T07:48:06.149Z,4.00
2022-12-24T07:51:54.491Z,5.30
2022-12-24T07:55:30.131Z,4.90
2022-12-24T07:59:33.754Z,5.00
2022-12-24T08:03:56.356Z,4.70
2022-12-24T08:08:00.511Z,4.90
2022-12-24T08:11:57.418Z,5.30
2022-12-24T08:16:00.237Z,5.00
2022-12-24T08:20:07.138Z,5.30
2022-12-24T08:24:11.247Z,6.50
2022-12-24T08:28:04.849Z,6.60
2022-12-24T08:31:37.077Z,5.80
2022-12-24T08:35:25.656Z,6.00
2022-12-24T08:39:03.640Z,6.50
2022-12-24T08:42:33.997Z,6.70
2022-12-24T08:46:15.915Z,6.50
2022-12-24T08:49:46.780Z,6.70
2022-12-24T08:53:39.633Z,7.00
2022-12-24T08:57:21.125Z,7.70
2022-12-24T09:01:07.953Z,7.20
2022-12-24T09:04:54.719Z,6.40
2022-12-24T09:08:48.286Z,8.10
2022-12-24T09:12:41.733Z,7.20
2022-12-24T09:16:28.357Z,7.10
2022-12-24T09:20:19.762Z,6.60
2022-12-24T09:24:06.284Z,6.60
2022-12-24T09:28:10.048Z,6.40
2022-12-24T09:31:56.068Z,9.80
2022-12-24T09:35:55.843Z,7.90
2022-12-24T09:39:41.824Z,7.10
2022-12-24T09:43:45.463Z,5.90
2022-12-24T09:48:09.512Z,5.10
2022-12-24T09:52:15.969Z,5.90
2022-12-24T09:56:33.373Z,5.10
2022-12-24T10:00:27.236Z,4.70
2022-12-24T10:04:35.732Z,3.60
2022-12-24T10:08:46.034Z,4.20
2022-12-24T10:12:56.782Z,3.60
2022-12-24T10:17:03.360Z,3.90
2022-12-24T10:21:18.693Z,3.00
2022-12-24T10:25:28.266Z,3.50
2022-12-24T10:29:50.111Z,3.00
2022-12-24T10:33:52.664Z,2.10
2022-12-24T10:37:56.834Z,1.80
2022-12-24T10:41:57.929Z,2.10
2022-12-24T10:46:01.581Z,2.70
2022-12-24T10:50:17.557Z,1.60
2022-12-24T10:54:26.957Z,1.70
2022-12-24T10:58:43.000Z,1.90
2022-12-24T11:02:31.556Z,1.90
2022-12-24T11:06:47.582Z,2.20
2022-12-24T11:10:40.086Z,2.70
2022-12-24T11:14:42.073Z,2.70
2022-12-24T11:22:15.151Z,2.40
2022-12-24T11:26:15.640Z,2.70
2022-12-24T11:30:19.339Z,2.90
2022-12-24T11:34:26.393Z,2.30
2022-12-24T11:38:30.607Z,2.70
2022-12-24T11:42:33.903Z,2.80
2022-12-24T11:46:38.111Z,2.20
2022-12-24T11:50:48.168Z,2.10
2022-12-24T11:54:57.695Z,2.10
2022-12-24T11:59:10.036Z,1.90
2022-12-24T12:03:29.932Z,1.70
2022-12-24T12:07:24.577Z,1.60
2022-12-24T12:10:57.395Z,1.30
2022-12-24T12:15:03.626Z,2.40
2022-12-24T12:19:13.158Z,1.40
2022-12-24T12:23:34.574Z,1.50
2022-12-24T12:27:38.635Z,0.80
2022-12-24T12:31:54.637Z,0.60
2022-12-24T12:36:17.343Z,0.70
2022-12-24T12:40:20.068Z,1.00
2022-12-24T12:44:29.381Z,0.80
2022-12-24T12:48:45.366Z,0.50
2022-12-24T12:52:51.957Z,0.70
2022-12-24T12:57:03.530Z,0.60
2022-12-24T13:01:06.361Z,1.10
2022-12-24T13:05:13.049Z,0.60
2022-12-24T13:09:29.811Z,1.00
2022-12-24T13:13:40.025Z,0.50
2022-12-24T13:17:49.734Z,0.50
2022-12-24T13:21:59.256Z,0.50
2022-12-24T13:26:02.985Z,0.60
2022-12-24T13:30:09.674Z,0.60
2022-12-24T13:34:19.944Z,0.50
2022-12-24T13:38:33.268Z,0.50
2022-12-24T13:42:37.111Z,0.50
2022-12-24T13:46:41.156Z,0.60
2022-12-24T13:51:03.266Z,0.60
2022-12-24T13:55:02.930Z,1.00
2022-12-24T13:58:49.348Z,0.60
2022-12-24T14:02:53.065Z,0.60
2022-12-24T14:06:55.279Z,0.80
2022-12-24T14:10:59.359Z,0.80
2022-12-24T14:15:08.827Z,1.40
2022-12-24T14:19:43.909Z,0.90
2022-12-24T14:22:59.597Z,1.00
2022-12-24T14:26:54.557Z,1.90
2022-12-24T14:30:49.969Z,1.00
2022-12-24T14:36:00.013Z,1.00
2022-12-24T14:39:43.912Z,1.70
2022-12-24T14:44:04.567Z,2.00
2022-12-24T14:48:14.376Z,1.20
2022-12-24T14:52:37.821Z,3.90
2022-12-24T14:56:34.990Z,4.60
2022-12-24T15:00:39.845Z,1.40
2022-12-24T15:04:40.226Z,4.00
2022-12-24T15:08:42.438Z,2.60
2022-12-24T15:12:34.656Z,8.40
2022-12-24T15:16:38.348Z,4.90
2022-12-24T15:20:32.237Z,5.60
2022-12-24T15:24:20.722Z,4.60
2022-12-24T15:28:23.061Z,4.80
2022-12-24T15:32:26.939Z,4.00
2022-12-24T15:36:17.406Z,6.70
2022-12-24T15:40:04.561Z,7.90
2022-12-24T15:43:30.903Z,6.10
2022-12-24T15:47:27.690Z,2.50
2022-12-24T15:51:19.001Z,7.90
2022-12-24T15:58:58.742Z,5.70
2022-12-24T16:02:50.161Z,5.90
2022-12-24T16:07:03.345Z,8.70
2022-12-24T16:11:19.456Z,2.50
2022-12-24T16:14:42.718Z,3.50
2022-12-24T16:18:30.836Z,3.20
2022-12-24T16:22:26.130Z,3.00
2022-12-24T16:26:15.071Z,3.60
2022-12-24T16:30:11.902Z,4.80
2022-12-24T16:34:04.311Z,4.60
2022-12-24T16:38:00.529Z,3.10
2022-12-24T16:41:57.185Z,8.70
2022-12-24T16:45:52.375Z,3.50
2022-12-24T16:49:38.659Z,3.10
2022-12-24T16:53:38.733Z,2.40
2022-12-24T16:56:46.176Z,4.90
2022-12-24T17:00:10.149Z,4.00
2022-12-24T17:04:05.222Z,8.10
2022-12-24T17:08:36.001Z,3.30
2022-12-24T17:12:29.523Z,7.40
2022-12-24T17:16:27.485Z,5.50
2022-12-24T17:20:23.629Z,2.50
2022-12-24T17:24:16.949Z,6.10
2022-12-24T17:28:20.533Z,4.60
2022-12-24T17:31:57.535Z,4.60
2022-12-24T17:35:48.830Z,6.60
2022-12-24T17:39:28.591Z,3.90
2022-12-24T17:43:32.248Z,7.70
2022-12-24T17:47:36.374Z,3.00
2022-12-24T17:51:45.056Z,4.40
2022-12-24T17:55:49.916Z,8.70
2022-12-24T17:59:52.979Z,3.90
2022-12-24T18:04:17.151Z,5.50
2022-12-24T18:08:21.725Z,6.00
2022-12-24T18:12:25.786Z,5.70
2022-12-24T18:16:29.534Z,4.30
2022-12-24T18:20:26.863Z,5.80
2022-12-24T18:24:29.577Z,3.10
2022-12-24T18:28:22.355Z,3.40
2022-12-24T18:32:25.024Z,3.40
2022-12-24T18:36:21.039Z,3.20
2022-12-24T18:40:21.149Z,4.30
2022-12-24T18:44:06.512Z,4.00
2022-12-24T18:48:11.279Z,5.00
2022-12-24T18:52:09.253Z,2.90
2022-12-24T18:56:16.309Z,5.30
2022-12-24T19:00:19.951Z,3.60
2022-12-24T19:04:23.973Z,5.00
2022-12-24T19:08:22.224Z,5.60
2022-12-24T19:12:25.550Z,4.80
2022-12-24T19:16:29.703Z,4.70
2022-12-24T19:20:32.147Z,4.50
2022-12-24T19:24:35.887Z,4.50
2022-12-24T19:28:32.336Z,3.40
2022-12-24T19:32:37.161Z,5.00
2022-12-24T19:36:39.617Z,4.00
2022-12-24T19:40:41.966Z,2.30
2022-12-24T19:44:52.815Z,3.80
2022-12-24T19:48:57.994Z,4.20
2022-12-24T19:53:01.668Z,5.10
2022-12-24T19:56:48.598Z,3.90
2022-12-24T20:00:52.042Z,2.50
2022-12-24T20:04:38.101Z,2.50
2022-12-24T20:08:40.813Z,3.30
2022-12-24T20:12:35.694Z,2.80
2022-12-24T20:16:39.328Z,2.20
2022-12-24T20:20:26.054Z,2.90
2022-12-24T20:24:29.671Z,3.50
2022-12-24T20:28:16.713Z,3.30
2022-12-24T20:32:14.700Z,2.90
2022-12-24T20:36:26.857Z,2.40
2022-12-24T20:40:30.938Z,2.30
2022-12-24T20:44:11.078Z,1.70
2022-12-24T20:47:58.791Z,3.40
2022-12-24T20:52:13.318Z,2.40
2022-12-24T20:56:09.915Z,3.80
2022-12-24T21:00:06.821Z,1.90
2022-12-24T21:03:58.239Z,2.80
2022-12-24T21:07:44.435Z,2.90
2022-12-24T21:12:10.173Z,2.10
2022-12-24T21:16:02.495Z,3.30
2022-12-24T21:20:01.416Z,2.60
2022-12-24T21:24:05.661Z,1.50
2022-12-24T21:28:08.937Z,2.60
2022-12-24T21:32:12.481Z,2.30
2022-12-24T21:36:04.706Z,1.80
2022-12-24T21:39:22.741Z,1.60
2022-12-24T21:43:04.764Z,7.00
2022-12-24T21:47:10.786Z,4.30
2022-12-24T21:51:18.164Z,2.40
2022-12-24T21:55:20.737Z,2.40
2022-12-24T21:59:10.817Z,1.70
2022-12-24T22:03:07.597Z,2.60
2022-12-24T22:06:59.648Z,2.00
2022-12-24T22:11:01.079Z,2.80
2022-12-24T22:15:13.125Z,12.00
2022-12-24T22:19:07.738Z,4.10
2022-12-24T22:23:11.075Z,1.70
2022-12-24T22:27:11.289Z,2.00
2022-12-24T22:30:56.534Z,2.00
2022-12-24T22:35:00.185Z,2.40
2022-12-24T22:39:03.847Z,2.40
2022-12-24T22:42:41.805Z,1.90
2022-12-24T22:45:58.406Z,1.50
2022-12-24T22:50:00.856Z,2.20
2022-12-24T22:54:04.484Z,1.50
2022-12-24T22:57:20.999Z,2.90
2022-12-24T23:01:26.250Z,3.40
2022-12-24T23:05:28.851Z,2.80
2022-12-24T23:09:44.131Z,2.20
2022-12-24T23:13:46.713Z,2.00
2022-12-24T23:17:42.713Z,4.90
2022-12-24T23:21:17.720Z,1.90
2022-12-24T23:25:17.986Z,1.30
2022-12-24T23:28:46.976Z,3.10
2022-12-24T23:32:36.581Z,1.70
2022-12-24T23:36:22.865Z,1.80
2022-12-24T23:40:26.497Z,1.60
2022-12-24T23:44:30.145Z,1.90
2022-12-24T23:48:28.452Z,3.60
2022-12-24T23:52:17.117Z,2.30
2022-12-24T23:56:19.735Z,1.80
